sensor_id;sensor_type;location;lat;lon;timestamp;P1;durP1;ratioP1;P2;durP2;ratioP2
76818;SDS011;65772;51.096;17.006;2023-04-03T05:53:12;8.20;;;2.10;;
76818;SDS011;65772;51.096;17.006;2023-04-03T05:55:47;5.70;;;2.00;;
76818;SDS011;65772;51.096;17.006;2023-04-03T05:58:19;7.20;;;2.10;;
76818;SDS011;65772;51.096;17.006;2023-04-03T06:00:50;10.30;;;2.60;;
76818;SDS011;65772;51.096;17.006;2023-04-03T06:03:20;6.70;;;2.10;;
76818;SDS011;65772;51.096;17.006;2023-04-03T06:05:51;8.90;;;2.50;;
76818;SDS011;65772;51.096;17.006;2023-04-03T06:08:24;5.70;;;1.90;;
76818;SDS011;65772;51.096;17.006;2023-04-03T06:10:55;7.50;;;2.20;;
76818;SDS011;65772;51.096;17.006;2023-04-03T06:15:57;5.60;;;2.10;;
76818;SDS011;65772;51.096;17.006;2023-04-03T06:18:27;8.90;;;2.20;;
76818;SDS011;65772;51.096;17.006;2023-04-03T06:20:59;5.40;;;2.10;;
76818;SDS011;65772;51.096;17.006;2023-04-03T06:23:30;9.20;;;3.10;;
76818;SDS011;65772;51.096;17.006;2023-04-03T06:26:01;8.50;;;2.40;;
76818;SDS011;65772;51.096;17.006;2023-04-03T06:28:31;8.90;;;2.20;;
76818;SDS011;65772;51.096;17.006;2023-04-03T06:31:02;8.00;;;2.40;;
76818;SDS011;65772;51.096;17.006;2023-04-03T06:33:33;5.90;;;2.50;;
76818;SDS011;65772;51.096;17.006;2023-04-03T06:36:04;8.50;;;2.60;;
76818;SDS011;65772;51.096;17.006;2023-04-03T06:38:36;8.60;;;2.50;;
76818;SDS011;65772;51.096;17.006;2023-04-03T06:41:07;6.20;;;2.40;;
76818;SDS011;65772;51.096;17.006;2023-04-03T06:43:37;6.50;;;2.40;;
76818;SDS011;65772;51.096;17.006;2023-04-03T06:46:09;6.30;;;2.10;;
76818;SDS011;65772;51.096;17.006;2023-04-03T06:48:44;7.40;;;2.80;;
76818;SDS011;65772;51.096;17.006;2023-04-03T06:51:18;7.30;;;2.40;;
76818;SDS011;65772;51.096;17.006;2023-04-03T06:53:51;7.40;;;2.40;;
76818;SDS011;65772;51.096;17.006;2023-04-03T06:58:52;8.30;;;2.60;;
76818;SDS011;65772;51.096;17.006;2023-04-03T07:01:25;6.80;;;2.10;;
76818;SDS011;65772;51.096;17.006;2023-04-03T07:06:26;7.30;;;2.50;;
76818;SDS011;65772;51.096;17.006;2023-04-03T07:08:59;7.10;;;2.90;;
76818;SDS011;65772;51.096;17.006;2023-04-03T07:11:30;6.40;;;2.50;;
76818;SDS011;65772;51.096;17.006;2023-04-03T07:14:00;7.20;;;2.90;;
76818;SDS011;65772;51.096;17.006;2023-04-03T07:16:31;7.50;;;2.20;;
76818;SDS011;65772;51.096;17.006;2023-04-03T07:19:02;7.50;;;2.40;;
76818;SDS011;65772;51.096;17.006;2023-04-03T07:21:33;6.00;;;2.40;;
76818;SDS011;65772;51.096;17.006;2023-04-03T07:24:03;6.00;;;2.10;;
76818;SDS011;65772;51.096;17.006;2023-04-03T07:26:39;7.00;;;2.20;;
76818;SDS011;65772;51.096;17.006;2023-04-03T07:29:10;6.00;;;2.40;;
76818;SDS011;65772;51.096;17.006;2023-04-03T07:31:41;7.30;;;2.80;;
76818;SDS011;65772;51.096;17.006;2023-04-03T07:34:13;6.40;;;2.40;;
76818;SDS011;65772;51.096;17.006;2023-04-03T07:36:44;6.00;;;1.90;;
76818;SDS011;65772;51.096;17.006;2023-04-03T07:39:14;7.40;;;2.50;;
76818;SDS011;65772;51.096;17.006;2023-04-03T07:41:45;8.30;;;2.30;;
76818;SDS011;65772;51.096;17.006;2023-04-03T07:44:16;8.30;;;3.00;;
76818;SDS011;65772;51.096;17.006;2023-04-03T07:46:47;6.00;;;2.50;;
76818;SDS011;65772;51.096;17.006;2023-04-03T07:49:18;8.10;;;2.50;;
76818;SDS011;65772;51.096;17.006;2023-04-03T07:51:50;7.40;;;2.20;;
76818;SDS011;65772;51.096;17.006;2023-04-03T07:54:22;6.80;;;2.70;;
76818;SDS011;65772;51.096;17.006;2023-04-03T07:56:52;6.60;;;2.60;;
76818;SDS011;65772;51.096;17.006;2023-04-03T07:59:23;8.10;;;2.60;;
76818;SDS011;65772;51.096;17.006;2023-04-03T08:01:53;5.50;;;2.20;;
76818;SDS011;65772;51.096;17.006;2023-04-03T08:04:24;6.90;;;2.40;;
76818;SDS011;65772;51.096;17.006;2023-04-03T08:06:55;5.30;;;1.90;;
76818;SDS011;65772;51.096;17.006;2023-04-03T08:09:26;5.50;;;2.10;;
76818;SDS011;65772;51.096;17.006;2023-04-03T08:11:56;6.40;;;1.80;;
76818;SDS011;65772;51.096;17.006;2023-04-03T08:14:27;7.80;;;2.10;;
76818;SDS011;65772;51.096;17.006;2023-04-03T08:17:02;6.80;;;2.00;;
76818;SDS011;65772;51.096;17.006;2023-04-03T08:19:33;7.70;;;2.20;;
76818;SDS011;65772;51.096;17.006;2023-04-03T08:22:03;6.10;;;2.10;;
76818;SDS011;65772;51.096;17.006;2023-04-03T08:24:34;7.60;;;2.70;;
76818;SDS011;65772;51.096;17.006;2023-04-03T08:27:09;5.10;;;1.70;;
76818;SDS011;65772;51.096;17.006;2023-04-03T08:29:40;6.90;;;2.00;;
76818;SDS011;65772;51.096;17.006;2023-04-03T08:32:11;6.90;;;2.00;;
76818;SDS011;65772;51.096;17.006;2023-04-03T08:34:41;5.80;;;1.50;;
76818;SDS011;65772;51.096;17.006;2023-04-03T08:37:12;6.20;;;1.80;;
76818;SDS011;65772;51.096;17.006;2023-04-03T08:39:45;4.70;;;1.70;;
76818;SDS011;65772;51.096;17.006;2023-04-03T08:42:18;4.20;;;1.80;;
76818;SDS011;65772;51.096;17.006;2023-04-03T08:44:57;5.10;;;1.70;;
76818;SDS011;65772;51.096;17.006;2023-04-03T08:47:36;6.30;;;1.90;;
76818;SDS011;65772;51.096;17.006;2023-04-03T08:50:12;5.10;;;1.80;;
76818;SDS011;65772;51.096;17.006;2023-04-03T08:52:47;4.50;;;1.80;;
76818;SDS011;65772;51.096;17.006;2023-04-03T08:55:22;9.80;;;2.00;;
76818;SDS011;65772;51.096;17.006;2023-04-03T08:57:58;6.30;;;1.90;;
76818;SDS011;65772;51.096;17.006;2023-04-03T09:00:34;6.30;;;1.60;;
76818;SDS011;65772;51.096;17.006;2023-04-03T09:03:13;4.90;;;1.80;;
76818;SDS011;65772;51.096;17.006;2023-04-03T09:05:47;5.50;;;1.60;;
76818;SDS011;65772;51.096;17.006;2023-04-03T09:08:25;4.60;;;1.80;;
76818;SDS011;65772;51.096;17.006;2023-04-03T09:11:03;8.10;;;2.50;;
76818;SDS011;65772;51.096;17.006;2023-04-03T09:13:44;5.50;;;1.70;;
76818;SDS011;65772;51.096;17.006;2023-04-03T09:16:27;4.50;;;1.90;;
76818;SDS011;65772;51.096;17.006;2023-04-03T09:19:10;3.10;;;1.50;;
76818;SDS011;65772;51.096;17.006;2023-04-03T09:21:51;5.60;;;2.20;;
76818;SDS011;65772;51.096;17.006;2023-04-03T09:24:22;5.20;;;1.60;;
76818;SDS011;65772;51.096;17.006;2023-04-03T09:26:55;4.50;;;1.70;;
76818;SDS011;65772;51.096;17.006;2023-04-03T09:29:28;7.80;;;1.80;;
76818;SDS011;65772;51.096;17.006;2023-04-03T09:31:59;3.70;;;1.40;;
76818;SDS011;65772;51.096;17.006;2023-04-03T09:34:31;5.20;;;1.50;;
76818;SDS011;65772;51.096;17.006;2023-04-03T09:37:04;5.80;;;1.60;;
76818;SDS011;65772;51.096;17.006;2023-04-03T09:39:49;4.60;;;1.80;;
76818;SDS011;65772;51.096;17.006;2023-04-03T09:42:23;5.40;;;1.50;;
76818;SDS011;65772;51.096;17.006;2023-04-03T09:44:55;4.00;;;1.80;;
76818;SDS011;65772;51.096;17.006;2023-04-03T09:47:27;5.00;;;1.50;;
76818;SDS011;65772;51.096;17.006;2023-04-03T09:50:18;4.40;;;1.60;;
76818;SDS011;65772;51.096;17.006;2023-04-03T09:52:51;5.00;;;1.50;;
76818;SDS011;65772;51.096;17.006;2023-04-03T09:55:22;3.60;;;1.50;;
76818;SDS011;65772;51.096;17.006;2023-04-03T09:57:58;4.90;;;1.60;;
76818;SDS011;65772;51.096;17.006;2023-04-03T10:00:30;4.80;;;1.70;;
76818;SDS011;65772;51.096;17.006;2023-04-03T10:03:04;6.10;;;1.80;;
76818;SDS011;65772;51.096;17.006;2023-04-03T10:05:52;6.30;;;1.90;;
76818;SDS011;65772;51.096;17.006;2023-04-03T10:08:24;3.90;;;1.80;;
76818;SDS011;65772;51.096;17.006;2023-04-03T10:11:07;4.40;;;1.50;;
76818;SDS011;65772;51.096;17.006;2023-04-03T10:13:53;6.40;;;1.70;;
76818;SDS011;65772;51.096;17.006;2023-04-03T10:16:34;11.00;;;2.70;;
76818;SDS011;65772;51.096;17.006;2023-04-03T10:19:20;6.30;;;2.00;;
76818;SDS011;65772;51.096;17.006;2023-04-03T10:22:02;7.40;;;1.90;;
76818;SDS011;65772;51.096;17.006;2023-04-03T10:24:42;7.00;;;1.90;;
76818;SDS011;65772;51.096;17.006;2023-04-03T10:27:18;5.30;;;1.90;;
76818;SDS011;65772;51.096;17.006;2023-04-03T10:32:33;5.70;;;1.80;;
76818;SDS011;65772;51.096;17.006;2023-04-03T10:35:20;3.50;;;1.50;;
76818;SDS011;65772;51.096;17.006;2023-04-03T10:38:03;4.60;;;1.90;;
76818;SDS011;65772;51.096;17.006;2023-04-03T10:40:39;4.40;;;1.80;;
76818;SDS011;65772;51.096;17.006;2023-04-03T10:43:21;7.20;;;2.20;;
76818;SDS011;65772;51.096;17.006;2023-04-03T10:46:02;8.70;;;2.50;;
76818;SDS011;65772;51.096;17.006;2023-04-03T10:48:46;7.30;;;1.90;;
76818;SDS011;65772;51.096;17.006;2023-04-03T10:51:36;5.30;;;1.90;;
76818;SDS011;65772;51.096;17.006;2023-04-03T10:54:15;5.00;;;2.20;;
76818;SDS011;65772;51.096;17.006;2023-04-03T10:56:53;5.40;;;2.00;;
76818;SDS011;65772;51.096;17.006;2023-04-03T10:59:40;7.90;;;2.10;;
76818;SDS011;65772;51.096;17.006;2023-04-03T11:02:16;6.20;;;2.10;;
76818;SDS011;65772;51.096;17.006;2023-04-03T11:04:52;7.30;;;2.00;;
76818;SDS011;65772;51.096;17.006;2023-04-03T11:07:28;6.30;;;2.10;;
76818;SDS011;65772;51.096;17.006;2023-04-03T11:10:03;4.60;;;1.70;;
76818;SDS011;65772;51.096;17.006;2023-04-03T11:12:43;5.10;;;1.80;;
76818;SDS011;65772;51.096;17.006;2023-04-03T11:15:18;6.60;;;2.20;;
76818;SDS011;65772;51.096;17.006;2023-04-03T11:18:02;4.90;;;1.70;;
76818;SDS011;65772;51.096;17.006;2023-04-03T11:20:38;5.30;;;1.90;;
76818;SDS011;65772;51.096;17.006;2023-04-03T11:23:15;5.80;;;2.00;;
76818;SDS011;65772;51.096;17.006;2023-04-03T11:28:35;5.50;;;1.90;;
76818;SDS011;65772;51.096;17.006;2023-04-03T11:31:12;5.90;;;1.90;;
76818;SDS011;65772;51.096;17.006;2023-04-03T11:33:58;5.90;;;1.70;;
76818;SDS011;65772;51.096;17.006;2023-04-03T11:36:42;5.30;;;1.80;;
76818;SDS011;65772;51.096;17.006;2023-04-03T11:39:19;4.80;;;1.70;;
76818;SDS011;65772;51.096;17.006;2023-04-03T11:41:54;6.30;;;2.20;;
76818;SDS011;65772;51.096;17.006;2023-04-03T11:44:41;5.90;;;2.00;;
76818;SDS011;65772;51.096;17.006;2023-04-03T11:47:12;6.30;;;2.50;;
76818;SDS011;65772;51.096;17.006;2023-04-03T11:53:28;4.50;;;1.50;;
76818;SDS011;65772;51.096;17.006;2023-04-03T11:56:03;6.40;;;1.80;;
76818;SDS011;65772;51.096;17.006;2023-04-03T12:01:50;6.50;;;2.10;;
76818;SDS011;65772;51.096;17.006;2023-04-03T12:04:23;5.00;;;1.80;;
76818;SDS011;65772;51.096;17.006;2023-04-03T12:07:02;6.90;;;2.10;;
76818;SDS011;65772;51.096;17.006;2023-04-03T12:12:58;5.30;;;1.50;;
76818;SDS011;65772;51.096;17.006;2023-04-03T12:24:44;4.70;;;1.80;;
76818;SDS011;65772;51.096;17.006;2023-04-03T12:27:26;5.20;;;1.60;;
76818;SDS011;65772;51.096;17.006;2023-04-03T12:30:07;4.50;;;1.80;;
76818;SDS011;65772;51.096;17.006;2023-04-03T12:32:54;3.30;;;1.60;;
76818;SDS011;65772;51.096;17.006;2023-04-03T12:35:43;5.30;;;1.70;;
76818;SDS011;65772;51.096;17.006;2023-04-03T12:38:36;5.00;;;2.40;;
76818;SDS011;65772;51.096;17.006;2023-04-03T12:41:33;3.90;;;1.90;;
76818;SDS011;65772;51.096;17.006;2023-04-03T12:44:15;4.70;;;1.80;;
76818;SDS011;65772;51.096;17.006;2023-04-03T12:46:58;4.90;;;1.80;;
76818;SDS011;65772;51.096;17.006;2023-04-03T12:49:37;5.20;;;1.90;;
76818;SDS011;65772;51.096;17.006;2023-04-03T12:52:16;6.80;;;2.00;;
76818;SDS011;65772;51.096;17.006;2023-04-03T12:54:54;5.80;;;2.10;;
76818;SDS011;65772;51.096;17.006;2023-04-03T12:57:26;4.80;;;2.00;;
76818;SDS011;65772;51.096;17.006;2023-04-03T12:59:56;5.90;;;2.10;;
76818;SDS011;65772;51.096;17.006;2023-04-03T13:02:28;4.50;;;1.70;;
76818;SDS011;65772;51.096;17.006;2023-04-03T13:05:04;4.80;;;2.20;;
76818;SDS011;65772;51.096;17.006;2023-04-03T13:07:37;4.70;;;2.00;;
76818;SDS011;65772;51.096;17.006;2023-04-03T13:10:15;5.40;;;1.70;;
76818;SDS011;65772;51.096;17.006;2023-04-03T13:12:50;4.60;;;2.10;;
76818;SDS011;65772;51.096;17.006;2023-04-03T13:15:22;4.20;;;1.90;;
76818;SDS011;65772;51.096;17.006;2023-04-03T13:17:55;4.60;;;2.10;;
76818;SDS011;65772;51.096;17.006;2023-04-03T13:20:28;5.90;;;2.00;;
76818;SDS011;65772;51.096;17.006;2023-04-03T13:23:01;4.70;;;2.80;;
76818;SDS011;65772;51.096;17.006;2023-04-03T13:25:35;5.90;;;2.00;;
76818;SDS011;65772;51.096;17.006;2023-04-03T13:28:11;5.60;;;2.70;;
76818;SDS011;65772;51.096;17.006;2023-04-03T13:30:55;4.40;;;1.80;;
76818;SDS011;65772;51.096;17.006;2023-04-03T13:33:32;5.10;;;2.60;;
76818;SDS011;65772;51.096;17.006;2023-04-03T13:36:07;5.70;;;2.60;;
76818;SDS011;65772;51.096;17.006;2023-04-03T13:38:45;6.70;;;3.10;;
76818;SDS011;65772;51.096;17.006;2023-04-03T13:41:26;7.40;;;3.30;;
76818;SDS011;65772;51.096;17.006;2023-04-03T13:47:16;5.30;;;2.90;;
76818;SDS011;65772;51.096;17.006;2023-04-03T13:49:59;5.50;;;2.30;;
76818;SDS011;65772;51.096;17.006;2023-04-03T13:52:34;7.10;;;2.50;;
76818;SDS011;65772;51.096;17.006;2023-04-03T13:55:19;7.60;;;2.60;;
76818;SDS011;65772;51.096;17.006;2023-04-03T13:57:55;4.80;;;2.20;;
76818;SDS011;65772;51.096;17.006;2023-04-03T14:00:29;5.20;;;2.10;;
76818;SDS011;65772;51.096;17.006;2023-04-03T14:03:11;5.10;;;1.90;;
76818;SDS011;65772;51.096;17.006;2023-04-03T14:05:46;5.40;;;2.30;;
76818;SDS011;65772;51.096;17.006;2023-04-03T14:08:16;4.60;;;1.90;;
76818;SDS011;65772;51.096;17.006;2023-04-03T14:10:56;6.10;;;2.10;;
76818;SDS011;65772;51.096;17.006;2023-04-03T14:13:26;5.60;;;2.00;;
76818;SDS011;65772;51.096;17.006;2023-04-03T14:15:59;4.30;;;2.00;;
76818;SDS011;65772;51.096;17.006;2023-04-03T14:18:42;3.90;;;1.80;;
76818;SDS011;65772;51.096;17.006;2023-04-03T14:21:14;5.20;;;1.70;;
76818;SDS011;65772;51.096;17.006;2023-04-03T14:23:46;4.40;;;1.80;;
76818;SDS011;65772;51.096;17.006;2023-04-03T14:26:19;3.50;;;1.60;;
76818;SDS011;65772;51.096;17.006;2023-04-03T14:28:52;5.00;;;1.90;;
76818;SDS011;65772;51.096;17.006;2023-04-03T14:31:23;6.00;;;2.00;;
76818;SDS011;65772;51.096;17.006;2023-04-03T14:36:25;6.30;;;2.10;;
76818;SDS011;65772;51.096;17.006;2023-04-03T14:38:58;5.60;;;2.40;;
76818;SDS011;65772;51.096;17.006;2023-04-03T14:41:29;4.70;;;1.80;;
76818;SDS011;65772;51.096;17.006;2023-04-03T14:44:00;5.10;;;1.80;;
76818;SDS011;65772;51.096;17.006;2023-04-03T14:46:32;5.30;;;2.50;;
76818;SDS011;65772;51.096;17.006;2023-04-03T14:49:24;5.40;;;1.80;;
76818;SDS011;65772;51.096;17.006;2023-04-03T14:51:57;4.30;;;1.90;;
76818;SDS011;65772;51.096;17.006;2023-04-03T14:54:28;4.20;;;1.90;;
76818;SDS011;65772;51.096;17.006;2023-04-03T14:56:59;9.30;;;2.10;;
76818;SDS011;65772;51.096;17.006;2023-04-03T14:59:30;5.20;;;1.90;;
76818;SDS011;65772;51.096;17.006;2023-04-03T15:02:01;7.10;;;2.70;;
76818;SDS011;65772;51.096;17.006;2023-04-03T15:04:35;6.40;;;2.20;;
76818;SDS011;65772;51.096;17.006;2023-04-03T15:07:07;7.10;;;2.00;;
76818;SDS011;65772;51.096;17.006;2023-04-03T15:09:38;9.10;;;2.30;;
76818;SDS011;65772;51.096;17.006;2023-04-03T15:12:09;5.60;;;2.20;;
76818;SDS011;65772;51.096;17.006;2023-04-03T15:14:41;11.00;;;4.90;;
76818;SDS011;65772;51.096;17.006;2023-04-03T15:17:21;4.90;;;1.90;;
76818;SDS011;65772;51.096;17.006;2023-04-03T15:19:52;4.50;;;1.80;;
76818;SDS011;65772;51.096;17.006;2023-04-03T15:22:23;6.20;;;2.00;;
76818;SDS011;65772;51.096;17.006;2023-04-03T15:24:54;8.90;;;2.90;;
76818;SDS011;65772;51.096;17.006;2023-04-03T15:27:24;4.50;;;2.10;;
76818;SDS011;65772;51.096;17.006;2023-04-03T15:29:56;4.80;;;1.90;;
76818;SDS011;65772;51.096;17.006;2023-04-03T15:32:27;5.10;;;1.90;;
76818;SDS011;65772;51.096;17.006;2023-04-03T15:34:59;4.00;;;1.90;;
76818;SDS011;65772;51.096;17.006;2023-04-03T15:37:30;6.80;;;2.20;;
76818;SDS011;65772;51.096;17.006;2023-04-03T15:40:01;4.80;;;2.30;;
76818;SDS011;65772;51.096;17.006;2023-04-03T15:42:32;5.40;;;2.00;;
76818;SDS011;65772;51.096;17.006;2023-04-03T15:45:02;6.50;;;2.20;;
76818;SDS011;65772;51.096;17.006;2023-04-03T15:47:34;7.70;;;2.10;;
76818;SDS011;65772;51.096;17.006;2023-04-03T15:50:06;4.80;;;2.20;;
76818;SDS011;65772;51.096;17.006;2023-04-03T15:52:37;6.70;;;2.20;;
76818;SDS011;65772;51.096;17.006;2023-04-03T15:55:08;5.20;;;2.60;;
76818;SDS011;65772;51.096;17.006;2023-04-03T15:57:39;5.90;;;3.10;;
76818;SDS011;65772;51.096;17.006;2023-04-03T16:00:11;6.70;;;2.70;;
76818;SDS011;65772;51.096;17.006;2023-04-03T16:02:42;4.70;;;2.30;;
76818;SDS011;65772;51.096;17.006;2023-04-03T16:05:15;5.60;;;2.30;;
76818;SDS011;65772;51.096;17.006;2023-04-03T16:07:46;6.50;;;2.40;;
76818;SDS011;65772;51.096;17.006;2023-04-03T16:10:17;5.50;;;2.30;;
76818;SDS011;65772;51.096;17.006;2023-04-03T16:12:48;5.30;;;2.20;;
76818;SDS011;65772;51.096;17.006;2023-04-03T16:15:19;5.60;;;2.20;;
76818;SDS011;65772;51.096;17.006;2023-04-03T16:17:50;4.60;;;2.20;;
76818;SDS011;65772;51.096;17.006;2023-04-03T16:20:21;7.50;;;2.30;;
76818;SDS011;65772;51.096;17.006;2023-04-03T16:22:52;7.20;;;2.40;;
76818;SDS011;65772;51.096;17.006;2023-04-03T16:25:25;6.10;;;2.50;;
76818;SDS011;65772;51.096;17.006;2023-04-03T16:27:55;5.70;;;2.30;;
76818;SDS011;65772;51.096;17.006;2023-04-03T16:30:26;4.50;;;2.20;;
76818;SDS011;65772;51.096;17.006;2023-04-03T16:32:57;6.60;;;2.70;;
76818;SDS011;65772;51.096;17.006;2023-04-03T16:35:28;8.40;;;2.80;;
76818;SDS011;65772;51.096;17.006;2023-04-03T16:37:59;8.00;;;2.30;;
76818;SDS011;65772;51.096;17.006;2023-04-03T16:40:30;6.10;;;2.40;;
76818;SDS011;65772;51.096;17.006;2023-04-03T16:43:02;6.80;;;2.60;;
76818;SDS011;65772;51.096;17.006;2023-04-03T16:45:33;4.90;;;2.50;;
76818;SDS011;65772;51.096;17.006;2023-04-03T16:48:04;6.40;;;2.50;;
76818;SDS011;65772;51.096;17.006;2023-04-03T16:50:34;7.80;;;2.60;;
76818;SDS011;65772;51.096;17.006;2023-04-03T16:53:05;8.40;;;2.70;;
76818;SDS011;65772;51.096;17.006;2023-04-03T16:55:37;9.50;;;3.10;;
76818;SDS011;65772;51.096;17.006;2023-04-03T16:58:08;9.90;;;2.90;;
76818;SDS011;65772;51.096;17.006;2023-04-03T17:00:38;10.00;;;4.90;;
76818;SDS011;65772;51.096;17.006;2023-04-03T17:03:09;6.40;;;3.00;;
76818;SDS011;65772;51.096;17.006;2023-04-03T17:05:40;6.40;;;2.90;;
76818;SDS011;65772;51.096;17.006;2023-04-03T17:08:11;5.80;;;2.50;;
76818;SDS011;65772;51.096;17.006;2023-04-03T17:10:42;6.50;;;2.10;;
76818;SDS011;65772;51.096;17.006;2023-04-03T17:13:13;6.20;;;2.50;;
76818;SDS011;65772;51.096;17.006;2023-04-03T17:15:43;5.70;;;2.20;;
76818;SDS011;65772;51.096;17.006;2023-04-03T17:18:14;6.60;;;2.70;;
76818;SDS011;65772;51.096;17.006;2023-04-03T17:20:45;5.30;;;2.50;;
76818;SDS011;65772;51.096;17.006;2023-04-03T17:23:15;6.10;;;2.70;;
76818;SDS011;65772;51.096;17.006;2023-04-03T17:25:46;6.30;;;2.60;;
76818;SDS011;65772;51.096;17.006;2023-04-03T17:28:16;6.70;;;2.60;;
76818;SDS011;65772;51.096;17.006;2023-04-03T17:30:47;6.10;;;2.30;;
76818;SDS011;65772;51.096;17.006;2023-04-03T17:33:17;11.20;;;6.00;;
76818;SDS011;65772;51.096;17.006;2023-04-03T17:35:48;10.60;;;5.30;;
76818;SDS011;65772;51.096;17.006;2023-04-03T17:38:19;11.10;;;5.90;;
76818;SDS011;65772;51.096;17.006;2023-04-03T17:40:49;12.30;;;5.40;;
76818;SDS011;65772;51.096;17.006;2023-04-03T17:43:20;6.20;;;2.40;;
76818;SDS011;65772;51.096;17.006;2023-04-03T17:45:50;8.60;;;3.00;;
76818;SDS011;65772;51.096;17.006;2023-04-03T17:48:22;6.70;;;2.70;;
76818;SDS011;65772;51.096;17.006;2023-04-03T17:50:54;6.70;;;3.00;;
76818;SDS011;65772;51.096;17.006;2023-04-03T17:53:26;6.70;;;2.80;;
76818;SDS011;65772;51.096;17.006;2023-04-03T17:55:58;6.40;;;2.50;;
76818;SDS011;65772;51.096;17.006;2023-04-03T17:58:32;7.40;;;3.10;;
76818;SDS011;65772;51.096;17.006;2023-04-03T18:01:11;6.50;;;2.90;;
76818;SDS011;65772;51.096;17.006;2023-04-03T18:03:43;10.10;;;2.70;;
76818;SDS011;65772;51.096;17.006;2023-04-03T18:06:15;7.80;;;3.20;;
76818;SDS011;65772;51.096;17.006;2023-04-03T18:08:49;6.80;;;3.30;;
76818;SDS011;65772;51.096;17.006;2023-04-03T18:11:24;7.20;;;3.20;;
76818;SDS011;65772;51.096;17.006;2023-04-03T18:13:56;7.80;;;3.20;;
76818;SDS011;65772;51.096;17.006;2023-04-03T18:16:29;7.10;;;3.10;;
76818;SDS011;65772;51.096;17.006;2023-04-03T18:19:00;7.80;;;3.30;;
76818;SDS011;65772;51.096;17.006;2023-04-03T18:21:54;9.40;;;3.40;;
76818;SDS011;65772;51.096;17.006;2023-04-03T18:24:27;8.40;;;3.30;;
76818;SDS011;65772;51.096;17.006;2023-04-03T18:27:00;15.10;;;7.10;;
76818;SDS011;65772;51.096;17.006;2023-04-03T18:29:34;11.90;;;5.20;;
76818;SDS011;65772;51.096;17.006;2023-04-03T18:32:08;7.70;;;3.60;;
76818;SDS011;65772;51.096;17.006;2023-04-03T18:34:41;7.40;;;3.40;;
76818;SDS011;65772;51.096;17.006;2023-04-03T18:37:11;10.50;;;3.50;;
76818;SDS011;65772;51.096;17.006;2023-04-03T18:39:43;11.00;;;3.40;;
76818;SDS011;65772;51.096;17.006;2023-04-03T18:42:15;7.10;;;3.30;;
76818;SDS011;65772;51.096;17.006;2023-04-03T18:44:48;8.50;;;3.60;;
76818;SDS011;65772;51.096;17.006;2023-04-03T18:47:21;8.30;;;3.60;;
76818;SDS011;65772;51.096;17.006;2023-04-03T18:49:52;7.90;;;3.70;;
76818;SDS011;65772;51.096;17.006;2023-04-03T18:52:22;11.30;;;3.60;;
76818;SDS011;65772;51.096;17.006;2023-04-03T18:54:53;7.70;;;3.30;;
76818;SDS011;65772;51.096;17.006;2023-04-03T18:57:24;8.50;;;3.40;;
76818;SDS011;65772;51.096;17.006;2023-04-03T18:59:54;8.60;;;3.20;;
76818;SDS011;65772;51.096;17.006;2023-04-03T19:02:25;8.60;;;3.20;;
76818;SDS011;65772;51.096;17.006;2023-04-03T19:04:56;5.90;;;2.90;;
76818;SDS011;65772;51.096;17.006;2023-04-03T19:07:28;6.00;;;2.90;;
76818;SDS011;65772;51.096;17.006;2023-04-03T19:09:59;9.10;;;3.40;;
76818;SDS011;65772;51.096;17.006;2023-04-03T19:12:30;7.60;;;3.10;;
76818;SDS011;65772;51.096;17.006;2023-04-03T19:15:02;10.50;;;3.60;;
76818;SDS011;65772;51.096;17.006;2023-04-03T19:17:33;6.90;;;3.30;;
76818;SDS011;65772;51.096;17.006;2023-04-03T19:20:04;7.80;;;3.10;;
76818;SDS011;65772;51.096;17.006;2023-04-03T19:22:38;6.80;;;3.30;;
76818;SDS011;65772;51.096;17.006;2023-04-03T19:25:10;6.70;;;3.00;;
76818;SDS011;65772;51.096;17.006;2023-04-03T19:27:41;7.20;;;3.40;;
76818;SDS011;65772;51.096;17.006;2023-04-03T19:30:12;6.90;;;3.20;;
76818;SDS011;65772;51.096;17.006;2023-04-03T19:32:43;9.50;;;3.60;;
76818;SDS011;65772;51.096;17.006;2023-04-03T19:35:13;6.60;;;3.60;;
76818;SDS011;65772;51.096;17.006;2023-04-03T19:37:44;7.50;;;3.30;;
76818;SDS011;65772;51.096;17.006;2023-04-03T19:40:17;6.70;;;3.20;;
76818;SDS011;65772;51.096;17.006;2023-04-03T19:42:48;7.20;;;3.20;;
76818;SDS011;65772;51.096;17.006;2023-04-03T19:45:20;8.90;;;3.30;;
76818;SDS011;65772;51.096;17.006;2023-04-03T19:47:52;8.20;;;3.60;;
76818;SDS011;65772;51.096;17.006;2023-04-03T19:50:26;8.00;;;3.70;;
76818;SDS011;65772;51.096;17.006;2023-04-03T19:52:56;7.40;;;3.10;;
76818;SDS011;65772;51.096;17.006;2023-04-03T19:55:27;12.70;;;4.10;;
76818;SDS011;65772;51.096;17.006;2023-04-03T19:57:58;8.80;;;3.60;;
76818;SDS011;65772;51.096;17.006;2023-04-03T20:00:29;8.50;;;3.90;;
76818;SDS011;65772;51.096;17.006;2023-04-03T20:03:00;8.50;;;3.40;;
76818;SDS011;65772;51.096;17.006;2023-04-03T20:05:31;8.50;;;3.80;;
76818;SDS011;65772;51.096;17.006;2023-04-03T20:08:02;11.50;;;4.20;;
76818;SDS011;65772;51.096;17.006;2023-04-03T20:13:07;9.10;;;3.80;;
76818;SDS011;65772;51.096;17.006;2023-04-03T20:15:38;10.90;;;3.70;;
76818;SDS011;65772;51.096;17.006;2023-04-03T20:18:12;9.30;;;3.70;;
76818;SDS011;65772;51.096;17.006;2023-04-03T20:20:50;8.10;;;3.10;;
76818;SDS011;65772;51.096;17.006;2023-04-03T20:23:25;8.40;;;3.40;;
76818;SDS011;65772;51.096;17.006;2023-04-03T20:25:57;17.10;;;7.40;;
76818;SDS011;65772;51.096;17.006;2023-04-03T20:28:42;11.00;;;4.60;;
76818;SDS011;65772;51.096;17.006;2023-04-03T20:31:13;9.80;;;4.00;;
76818;SDS011;65772;51.096;17.006;2023-04-03T20:33:44;8.90;;;3.90;;
76818;SDS011;65772;51.096;17.006;2023-04-03T20:36:15;9.10;;;3.70;;
76818;SDS011;65772;51.096;17.006;2023-04-03T20:38:48;9.60;;;3.80;;
76818;SDS011;65772;51.096;17.006;2023-04-03T20:41:19;9.00;;;3.70;;
76818;SDS011;65772;51.096;17.006;2023-04-03T20:43:50;9.40;;;4.30;;
76818;SDS011;65772;51.096;17.006;2023-04-03T20:46:21;8.30;;;4.00;;
76818;SDS011;65772;51.096;17.006;2023-04-03T20:49:14;9.90;;;3.80;;
76818;SDS011;65772;51.096;17.006;2023-04-03T20:51:46;9.70;;;4.30;;
76818;SDS011;65772;51.096;17.006;2023-04-03T20:54:18;11.50;;;4.10;;
76818;SDS011;65772;51.096;17.006;2023-04-03T20:56:49;13.10;;;4.50;;
76818;SDS011;65772;51.096;17.006;2023-04-03T20:59:19;8.20;;;3.30;;
76818;SDS011;65772;51.096;17.006;2023-04-03T21:01:50;9.20;;;3.70;;
76818;SDS011;65772;51.096;17.006;2023-04-03T21:04:22;9.50;;;3.80;;
76818;SDS011;65772;51.096;17.006;2023-04-03T21:21:27;6.90;;;3.00;;
76818;SDS011;65772;51.096;17.006;2023-04-03T21:23:58;8.70;;;3.50;;
76818;SDS011;65772;51.096;17.006;2023-04-03T21:26:33;7.30;;;3.10;;
76818;SDS011;65772;51.096;17.006;2023-04-03T21:29:05;9.40;;;3.20;;
76818;SDS011;65772;51.096;17.006;2023-04-03T21:31:53;9.30;;;3.50;;
76818;SDS011;65772;51.096;17.006;2023-04-03T21:34:24;6.80;;;2.80;;
76818;SDS011;65772;51.096;17.006;2023-04-03T21:36:56;6.40;;;2.80;;
76818;SDS011;65772;51.096;17.006;2023-04-03T21:39:31;8.20;;;2.80;;
76818;SDS011;65772;51.096;17.006;2023-04-03T21:42:02;7.60;;;2.60;;
76818;SDS011;65772;51.096;17.006;2023-04-03T21:44:34;9.20;;;3.80;;
76818;SDS011;65772;51.096;17.006;2023-04-03T21:47:04;9.20;;;2.90;;
76818;SDS011;65772;51.096;17.006;2023-04-03T21:49:35;7.00;;;2.80;;
76818;SDS011;65772;51.096;17.006;2023-04-03T21:52:06;6.60;;;2.70;;
76818;SDS011;65772;51.096;17.006;2023-04-03T21:54:36;7.30;;;2.30;;
76818;SDS011;65772;51.096;17.006;2023-04-03T21:57:07;7.50;;;2.70;;
76818;SDS011;65772;51.096;17.006;2023-04-03T21:59:38;6.30;;;2.60;;